Witch Creek (222) Station Data

Red Flag Warning: No
Fire Weather Zone: 250
SDGE Region: Ramona
Lat/Lon: 33.073/-116.738

Observations

Time Wind Speed/Gust Temp(F) RH Fuel Moist Fuel Temp(F) Dewpt(F) Tmax(F) Tmin(F) Accum Precip 10-min Precip SL Press(mb)
6/22 4:50am 58 0 G 1 64° 42% - - 40° 67.7° 62.4° - - 1008.0
6/22 4:40am 136 0 G 1 65° 40% - - 40° 67.7° 62.4° - - 1008.0
6/22 4:30am 84 1 G 2 64° 43% - - 41° 67.7° 62.4° - - 1008.0
6/22 4:20am 157 1 G 1 64° 44% - - 42° 67.7° 62.4° - - 1008.0
6/22 4:10am 28 0 G 2 64° 46% - - 43° 67.7° 62.4° - - 1008.0
6/22 4:00am 150 0 G 1 64° 45% - - 43° 67.7° 62.4° - - 1008.0
6/22 3:50am 38 1 G 2 64° 47% - - 43° 67.7° 62.4° - - 1008.0
6/22 3:40am 101 0 G 1 64° 47% - - 43° 67.7° 62.4° - - 1008.0
6/22 3:30am 42 1 G 2 63° 50% - - 44° 67.7° 62.4° - - 1008.0
6/22 3:20am 0 0 G 0 63° 50% - - 44° 67.7° 62.6° - - 1008.0
6/22 3:10am 174 0 G 1 63° 49% - - 44° 67.7° 62.7° - - 1008.0
6/22 3:00am 0 0 G 0 65° 46% - - 44° 67.7° 62.8° - - 1008.0
6/22 2:50am 119 1 G 2 64° 49% - - 44° 67.7° 62.8° - - 1008.0
6/22 2:40am 21 0 G 1 63° 50% - - 44° 67.7° 62.8° - - 1008.0
6/22 2:30am 0 0 G 0 64° 49% - - 44° 67.7° 63.1° - - 1008.0
6/22 2:20am 21 0 G 1 64° 49% - - 45° 67.7° 63.6° - - 1008.0
6/22 2:10am 115 0 G 1 64° 48% - - 44° 67.7° 64.1° - - 1008.0
6/22 2:00am 40 0 G 1 65° 49% - - 45° 67.7° 64.1° - - 1008.0
6/22 1:50am 138 0 G 0 66° 47% - - 45° 67.7° 64.4° - - 1008.0
6/22 1:40am 55 0 G 1 65° 49% - - 46° 67.7° 64.4° - - 1008.0
6/22 1:30am 6 0 G 1 65° 48% - - 45° 67.7° 64.4° - - 1008.0
6/22 1:20am 0 0 G 0 65° 49% - - 45° 67.7° 64.4° - - 1008.0
6/22 1:10am 0 0 G 0 65° 51% - - 46° 67.7° 64.4° - - 1008.0
6/22 1:00am 115 0 G 0 66° 51% - - 47° 67.7° 64.9° - - 1008.0
6/22 12:50am 73 1 G 2 66° 51% - - 48° 67.7° 65.2° - - 1008.0
6/22 12:40am 44 1 G 2 66° 52% - - 48° 67.7° 65.2° - - 1008.0
6/22 12:30am 52 0 G 1 66° 52% - - 48° 67.7° 65.2° - - 1008.0
6/22 12:20am 210 0 G 1 66° 53% - - 48° 67.7° 65.2° - - 1008.0
6/22 12:10am 191 0 G 1 67° 52% - - 49° 67.7° 66.1° - - 1008.0
6/22 12:00am 73 1 G 2 66° 54% - - 49° 96.7° 63.9° - - 1008.0
6/21 11:50pm 38 1 G 2 66° 55% - - 49° 96.7° 63.9° - - 1008.0
6/21 11:40pm 165 0 G 1 67° 54% - - 50° 96.7° 63.9° - - 1008.0
6/21 11:30pm 47 1 G 2 67° 54% - - 50° 96.7° 63.9° - - 1008.0
6/21 11:20pm 15 1 G 2 68° 51% - - 49° 96.7° 63.9° - - 1008.0
6/21 11:10pm 41 1 G 2 67° 55% - - 50° 96.7° 63.9° - - 1008.0
6/21 11:00pm 82 0 G 1 67° 54% - - 50° 96.7° 63.9° - - 1008.0
6/21 10:50pm 142 1 G 1 68° 54% - - 51° 96.7° 63.9° - - 1008.0
6/21 10:40pm 156 1 G 2 69° 52% - - 50° 96.7° 63.9° - - 1008.0
6/21 10:30pm 17 1 G 3 70° 49% - - 50° 96.7° 63.9° - - 1008.0
6/21 10:20pm 60 1 G 2 70° 51% - - 51° 96.7° 63.9° - - 1008.0
6/21 10:10pm 176 1 G 3 71° 49% - - 51° 96.7° 63.9° - - 1008.0
6/21 10:00pm 20 2 G 5 72° 47% - - 51° 96.7° 63.9° - - 1007.0
6/21 9:50pm 28 1 G 2 71° 50% - - 52° 96.7° 63.9° - - 1007.0
6/21 9:40pm 128 1 G 2 73° 47% - - 52° 96.7° 63.9° - - 1007.0
6/21 9:30pm 35 1 G 2 73° 47% - - 52° 96.7° 63.9° - - 1007.0
6/21 9:20pm 21 1 G 2 72° 50% - - 52° 96.7° 63.9° - - 1007.0
6/21 9:10pm 18 0 G 2 73° 46% - - 51° 96.7° 63.9° - - 1007.0
6/21 9:00pm 354 0 G 2 74° 45% - - 52° 96.7° 63.9° - - 1006.0
6/21 8:50pm 32 0 G 1 73° 48% - - 52° 96.7° 63.9° - - 1006.0
6/21 8:40pm 27 1 G 2 75° 45% - - 52° 96.7° 63.9° - - 1006.0
6/21 8:30pm 121 1 G 2 75° 47% - - 53° 96.7° 63.9° - - 1006.0
6/21 8:20pm 67 1 G 2 76° 45% - - 53° 96.7° 63.9° - - 1006.0
6/21 8:10pm 51 2 G 3 78° 41% - - 52° 96.7° 63.9° - - 1006.0
6/21 8:00pm 61 1 G 3 79° 39% - - 52° 96.7° 63.9° - - 1006.0
6/21 7:50pm 69 1 G 3 81° 37% - - 52° 96.7° 63.9° - - 1005.0
6/21 7:40pm 265 2 G 4 82° 35% - - 52° 96.7° 63.9° - - 1005.0
6/21 7:30pm 243 4 G 5 83° 34% - - 51° 96.7° 63.9° - - 1005.0
6/21 7:20pm 247 5 G 6 84° 31% - - 50° 96.7° 63.9° - - 1005.0
6/21 7:10pm 231 5 G 7 85° 29% - - 49° 96.7° 63.9° - - 1005.0
6/21 7:00pm 239 6 G 8 86° 27% - - 48° 96.7° 63.9° - - 1004.0
6/21 6:50pm 233 6 G 7 86° 26% - - 47° 96.7° 63.9° - - 1004.0
6/21 6:40pm 230 5 G 7 88° 23% - - 45° 96.7° 63.9° - - 1004.0
6/21 6:30pm 229 5 G 7 88° 20% - - 42° 96.7° 63.9° - - 1004.0
6/21 6:20pm 240 5 G 8 89° 18% - - 40° 96.7° 63.9° - - 1004.0
6/21 6:10pm 226 5 G 8 89° 15% - - 35° 96.7° 63.9° - - 1004.0
6/21 6:00pm 237 7 G 9 89° 13% - - 32° 96.7° 63.9° - - 1004.0
6/21 5:50pm 246 7 G 11 88° 17% - - 38° 96.7° 63.9° - - 1004.0
6/21 5:40pm 249 7 G 11 88° 23% - - 46° 96.7° 63.9° - - 1004.0
6/21 5:30pm 236 7 G 10 88° 25% - - 48° 96.7° 63.9° - - 1004.0
6/21 5:20pm 239 8 G 10 89° 26% - - 49° 96.7° 63.9° - - 1004.0
6/21 5:10pm 235 8 G 11 89° 25% - - 49° 96.7° 63.9° - - 1004.0
6/21 5:00pm 239 7 G 11 89° 25% - - 49° 96.7° 63.9° - - 1004.0
6/21 4:50pm 243 7 G 10 90° 24% - - 48° 96.7° 63.9° - - 1004.0
6/21 4:40pm 224 7 G 11 91° 23% - - 48° 96.7° 63.9° - - 1004.0
6/21 4:30pm 226 8 G 11 91° 22% - - 47° 96.7° 63.9° - - 1004.0
6/21 4:20pm 230 8 G 12 91° 22% - - 47° 96.7° 63.9° - - 1004.0
6/21 4:10pm 226 7 G 11 92° 21% - - 47° 96.7° 63.9° - - 1004.0
6/21 4:00pm 243 7 G 11 92° 21% - - 46° 96.7° 63.9° - - 1004.0
6/21 3:50pm 234 8 G 12 92° 21% - - 47° 96.7° 63.9° - - 1004.0
6/21 3:40pm 248 7 G 12 92° 21% - - 47° 96.7° 63.9° - - 1004.0
6/21 3:30pm 234 8 G 14 93° 21% - - 47° 96.7° 63.9° - - 1004.0
6/21 3:20pm 231 7 G 12 93° 20% - - 46° 96.7° 63.9° - - 1004.0
6/21 3:10pm 239 8 G 13 93° 21% - - 47° 96.7° 63.9° - - 1004.0
6/21 3:00pm 236 9 G 14 93° 21% - - 48° 96.7° 63.9° - - 1004.0
6/21 2:50pm 234 9 G 14 93° 23% - - 49° 96.7° 63.9° - - 1004.0
6/21 2:40pm 242 9 G 14 93° 22% - - 49° 96.7° 63.9° - - 1004.0
6/21 2:30pm 239 9 G 15 94° 22% - - 48° 96.7° 63.9° - - 1005.0
6/21 2:20pm 251 9 G 14 94° 21% - - 48° 96.7° 63.9° - - 1004.0
6/21 2:10pm 239 10 G 16 94° 21% - - 48° 96.7° 63.9° - - 1005.0
6/21 2:00pm 240 10 G 15 95° 20% - - 47° 96.7° 63.9° - - 1005.0
6/21 1:50pm 240 8 G 14 95° 17% - - 43° 96.7° 63.9° - - 1005.0
6/21 1:40pm 242 8 G 14 95° 14% - - 39° 96.7° 63.9° - - 1004.0
6/21 1:30pm 235 8 G 13 95° 14% - - 39° 96.7° 63.9° - - 1005.0
6/21 1:20pm 239 9 G 15 95° 14% - - 39° 96.7° 63.9° - - 1005.0
6/21 1:10pm 250 8 G 13 94° 15% - - 39° 96.7° 63.9° - - 1005.0
6/21 1:00pm 247 9 G 14 94° 15% - - 39° 96.7° 63.9° - - 1005.0
6/21 12:50pm 239 8 G 13 95° 15% - - 40° 96.7° 63.9° - - 1005.0
6/21 12:40pm 230 9 G 14 95° 16% - - 42° 96.7° 63.9° - - 1005.0
6/21 12:30pm 231 9 G 14 95° 15% - - 40° 96.7° 63.9° - - 1005.0
6/21 12:20pm 238 7 G 12 96° 12% - - 35° 96.7° 63.9° - - 1005.0
6/21 12:10pm 230 7 G 14 95° 11% - - 32° 96.7° 63.9° - - 1005.0
6/21 12:00pm 241 7 G 12 95° 11% - - 33° 96.7° 63.9° - - 1005.0
6/21 11:50am 217 6 G 13 95° 11% - - 33° 96.5° 63.9° - - 1005.0
6/21 11:40am 243 6 G 11 95° 11% - - 31° 95.7° 63.9° - - 1005.0
6/21 11:30am 240 7 G 9 94° 11% - - 32° 95.7° 63.9° - - 1005.0
6/21 11:20am 232 6 G 10 95° 11% - - 32° 95.7° 63.9° - - 1005.0
6/21 11:10am 237 6 G 9 94° 12% - - 33° 94.9° 63.9° - - 1006.0
6/21 11:00am 237 5 G 8 94° 12% - - 34° 94.9° 63.9° - - 1006.0
6/21 10:50am 238 4 G 8 93° 12% - - 33° 94.9° 63.9° - - 1006.0
6/21 10:40am 235 5 G 8 94° 13% - - 35° 94.9° 63.9° - - 1006.0
6/21 10:30am 220 5 G 8 94° 12% - - 34° 94.9° 63.9° - - 1006.0
6/21 10:20am 242 4 G 7 93° 13% - - 34° 93.9° 63.9° - - 1006.0
6/21 10:10am 248 5 G 8 92° 14% - - 36° 93.9° 63.9° - - 1006.0
6/21 10:00am 240 5 G 9 92° 14% - - 35° 93.9° 63.9° - - 1006.0
6/21 9:50am 211 4 G 6 93° 13% - - 35° 93.9° 63.9° - - 1006.0
6/21 9:40am 228 4 G 6 91° 14% - - 35° 92.2° 63.9° - - 1006.0
6/21 9:30am 232 4 G 7 91° 14% - - 36° 92.2° 63.9° - - 1006.0
6/21 9:20am 220 4 G 6 91° 14% - - 36° 92.2° 63.9° - - 1006.0
6/21 9:10am 221 4 G 5 91° 15% - - 36° 92.2° 63.9° - - 1006.0
6/21 9:00am 228 4 G 6 91° 14% - - 34° 92.2° 63.9° - - 1006.0
6/21 8:50am 218 2 G 4 92° 13% - - 33° 92.2° 63.9° - - 1006.0
6/21 8:40am 110 1 G 2 90° 14% - - 35° 91.5° 63.9° - - 1006.0
6/21 8:30am 107 0 G 2 90° 14% - - 34° 90.8° 63.9° - - 1006.0
6/21 8:20am 24 1 G 2 87° 17% - - 37° 88.5° 63.9° - - 1006.0
6/21 8:10am 340 1 G 3 84° 19% - - 38° 85.8° 63.9° - - 1007.0
6/21 8:00am 353 0 G 2 84° 21% - - 39° 85.2° 63.9° - - 1007.0
6/21 7:50am 99 0 G 1 81° 23% - - 40° 82.9° 63.9° - - 1007.0
6/21 7:40am 30 1 G 1 80° 26% - - 42° 80.3° 63.9° - - 1007.0
6/21 7:30am 122 0 G 1 79° 28% - - 43° 80.1° 63.9° - - 1007.0
6/21 7:20am 129 0 G 1 76° 29% - - 41° 78.4° 63.9° - - 1008.0
6/21 7:10am 122 1 G 1 74° 30% - - 40° 74.7° 63.9° - - 1008.0
6/21 7:00am 0 0 G 1 72° 29% - - 38° 74.3° 63.9° - - 1008.0
6/21 6:50am 114 1 G 2 70° 32% - - 39° 71.5° 63.9° - - 1009.0
6/21 6:40am 49 1 G 2 69° 31% - - 38° 70.4° 63.9° - - 1009.0
6/21 6:30am 127 0 G 1 67° 34% - - 38° 70.3° 63.9° - - 1009.0
6/21 6:20am 80 0 G 1 67° 35% - - 38° 70.3° 63.9° - - 1009.0
6/21 6:10am 90 0 G 1 66° 36% - - 39° 70.3° 63.9° - - 1009.0
6/21 6:00am 131 0 G 1 66° 39% - - 40° 70.3° 63.9° - - 1009.0
6/21 5:50am 152 1 G 2 66° 39% - - 40° 70.3° 63.9° - - 1009.0
6/21 5:40am 47 1 G 2 66° 39% - - 41° 70.3° 63.9° - - 1009.0
6/21 5:30am 65 1 G 2 66° 40% - - 41° 70.3° 63.9° - - 1009.0
6/21 5:20am 76 1 G 2 66° 42% - - 42° 70.3° 63.9° - - 1009.0
6/21 5:10am 40 1 G 2 65° 45% - - 43° 70.3° 63.9° - - 1010.0
6/21 5:00am 185 1 G 2 66° 42% - - 43° 70.3° 64.3° - - 1009.0
6/21 4:50am 24 0 G 2 66° 44% - - 43° 70.3° 64.3° - - 1009.0
6/21 4:40am 160 1 G 2 66° 44% - - 44° 70.3° 64.3° - - 1009.0
6/21 4:30am 47 1 G 1 67° 43% - - 43° 70.3° 64.3° - - 1009.0
6/21 4:20am 100 1 G 2 67° 44% - - 44° 70.3° 64.3° - - 1009.0
6/21 4:10am 80 1 G 2 68° 41% - - 44° 70.3° 64.3° - - 1009.0
6/21 4:00am 41 1 G 3 67° 45% - - 45° 70.3° 64.3° - - 1009.0
6/21 3:50am 57 1 G 2 67° 47% - - 46° 70.3° 64.3° - - 1009.0
6/21 3:40am 77 1 G 2 65° 51% - - 47° 70.3° 64.3° - - 1010.0
6/21 3:30am 75 0 G 2 66° 50% - - 47° 70.3° 64.8° - - 1010.0
6/21 3:20am 114 0 G 1 65° 52% - - 47° 70.3° 64.8° - - 1010.0
6/21 3:10am 115 0 G 1 66° 51% - - 48° 70.3° 65.2° - - 1010.0
6/21 3:00am 154 1 G 2 67° 50% - - 48° 70.3° 65.2° - - 1010.0
6/21 2:50am 150 2 G 3 67° 49% - - 48° 70.3° 65.2° - - 1010.0
6/21 2:40am 25 1 G 2 67° 51% - - 48° 70.3° 65.2° - - 1010.0
6/21 2:30am 127 1 G 2 66° 53% - - 48° 70.3° 65.2° - - 1010.0
6/21 2:20am 166 0 G 2 66° 52% - - 48° 70.3° 65.2° - - 1010.0
6/21 2:10am 176 0 G 1 67° 51% - - 48° 70.3° 65.2° - - 1010.0
6/21 2:00am 38 1 G 2 67° 52% - - 49° 70.3° 65.2° - - 1010.0
6/21 1:50am 233 0 G 1 69° 47% - - 48° 70.3° 65.2° - - 1010.0
6/21 1:40am 66 1 G 2 67° 52% - - 49° 69.6° 65.2° - - 1010.0
6/21 1:30am 289 2 G 3 68° 50% - - 49° 69.6° 65.3° - - 1010.0
6/21 1:20am 115 1 G 3 68° 52% - - 50° 69.1° 66.8° - - 1010.0
6/21 1:10am 95 1 G 2 68° 53% - - 50° 69.1° 66.8° - - 1010.0
6/21 1:00am 99 1 G 2 68° 53% - - 50° 69° 66.8° - - 1010.0
6/21 12:50am 44 0 G 2 67° 54% - - 50° 68.8° 66.8° - - 1011.0
6/21 12:40am 97 1 G 1 67° 55% - - 51° 68.8° 66.9° - - 1011.0
6/21 12:30am 178 1 G 2 68° 53% - - 50° 68.8° 67.2° - - 1011.0
6/21 12:20am 320 0 G 1 68° 54% - - 51° 68.8° 67.4° - - 1011.0
6/21 12:10am 52 0 G 1 68° 53% - - 51° 68.8° 67.7° - - 1011.0
6/21 12:00am 45 1 G 2 68° 53% - - 51° 96.5° 63.8° - - 1011.0
6/20 11:50pm 170 1 G 1 69° 52% - - 51° 96.5° 63.8° - - 1011.0
6/20 11:40pm 74 1 G 2 69° 52% - - 51° 96.5° 63.8° - - 1011.0
6/20 11:30pm 148 1 G 2 69° 53% - - 51° 96.5° 63.8° - - 1011.0
6/20 11:20pm 155 1 G 2 69° 53% - - 51° 96.5° 63.8° - - 1011.0
6/20 11:10pm 296 1 G 1 70° 51% - - 51° 96.5° 63.8° - - 1011.0
6/20 11:00pm 77 1 G 2 70° 50% - - 51° 96.5° 63.8° - - 1011.0
6/20 10:50pm 62 1 G 2 71° 49% - - 50° 96.5° 63.8° - - 1011.0
6/20 10:40pm 113 1 G 2 70° 49% - - 51° 96.5° 63.8° - - 1011.0
6/20 10:30pm 42 0 G 1 71° 48% - - 50° 96.5° 63.8° - - 1011.0
6/20 10:20pm 112 1 G 1 71° 48% - - 50° 96.5° 63.8° - - 1011.0
6/20 10:10pm 114 0 G 1 71° 49% - - 51° 96.5° 63.8° - - 1011.0
6/20 10:00pm 137 0 G 1 72° 48% - - 51° 96.5° 63.8° - - 1010.0
6/20 9:50pm 136 0 G 1 72° 47% - - 51° 96.5° 63.8° - - 1010.0
6/20 9:40pm 43 0 G 1 72° 48% - - 52° 96.5° 63.8° - - 1010.0
6/20 9:30pm 112 0 G 1 72° 49% - - 52° 96.5° 63.8° - - 1010.0
6/20 9:20pm 141 1 G 2 73° 47% - - 52° 96.5° 63.8° - - 1010.0
6/20 9:10pm 27 2 G 3 73° 45% - - 51° 96.5° 63.8° - - 1010.0
6/20 9:00pm 36 1 G 2 74° 44% - - 51° 96.5° 63.8° - - 1010.0
6/20 8:50pm 33 2 G 3 74° 44% - - 51° 96.5° 63.8° - - 1010.0
6/20 8:40pm 54 0 G 2 76° 42% - - 51° 96.5° 63.8° - - 1009.0
6/20 8:30pm 94 1 G 2 76° 42% - - 51° 96.5° 63.8° - - 1009.0
6/20 8:20pm 33 1 G 1 78° 39% - - 50° 96.5° 63.8° - - 1009.0
6/20 8:10pm 117 2 G 3 79° 37% - - 51° 96.5° 63.8° - - 1009.0
6/20 8:00pm 28 2 G 3 81° 34% - - 50° 96.5° 63.8° - - 1008.0
6/20 7:50pm 23 1 G 2 82° 32% - - 50° 96.5° 63.8° - - 1008.0
6/20 7:40pm 246 3 G 4 84° 30% - - 49° 96.5° 63.8° - - 1008.0
6/20 7:30pm 239 3 G 5 85° 29% - - 49° 96.5° 63.8° - - 1008.0
6/20 7:20pm 239 5 G 6 86° 28% - - 49° 96.5° 63.8° - - 1008.0
6/20 7:10pm 233 5 G 7 87° 27% - - 49° 96.5° 63.8° - - 1007.0
6/20 7:00pm 232 4 G 6 88° 26% - - 49° 96.5° 63.8° - - 1007.0
6/20 6:50pm 226 5 G 7 89° 26% - - 49° 96.5° 63.8° - - 1007.0
6/20 6:40pm 249 5 G 7 89° 26% - - 49° 96.5° 63.8° - - 1007.0
6/20 6:30pm 245 6 G 8 89° 26% - - 49° 96.5° 63.8° - - 1007.0
6/20 6:20pm 246 6 G 9 89° 26% - - 50° 96.5° 63.8° - - 1007.0
6/20 6:10pm 237 6 G 10 90° 26% - - 50° 96.5° 63.8° - - 1007.0
6/20 6:00pm 242 7 G 10 90° 25% - - 50° 96.5° 63.8° - - 1007.0